createdAt,value
2023-04-16T00:00:56.169Z,72.46
2023-04-16T00:03:24.596Z,72.47
2023-04-16T00:05:55.991Z,72.73
2023-04-16T00:08:25.556Z,72.52
2023-04-16T00:10:55.015Z,72.72
2023-04-16T00:13:23.413Z,72.58
2023-04-16T00:15:51.612Z,73.16
2023-04-16T00:18:21.358Z,73.14
2023-04-16T00:20:49.652Z,73.66
2023-04-16T00:23:18.215Z,73.70
2023-04-16T00:25:46.399Z,74.08
2023-04-16T00:28:14.466Z,74.64
2023-04-16T00:30:42.684Z,74.61
2023-04-16T00:33:10.904Z,74.59
2023-04-16T00:35:40.541Z,75.11
2023-04-16T00:38:08.570Z,74.67
2023-04-16T00:40:36.779Z,75.04
2023-04-16T00:43:04.985Z,75.31
2023-04-16T00:45:33.424Z,75.43
2023-04-16T00:48:02.465Z,75.49
2023-04-16T00:50:31.271Z,75.63
2023-04-16T00:53:00.903Z,75.54
2023-04-16T00:55:29.265Z,75.46
2023-04-16T00:58:16.024Z,75.43
2023-04-16T01:00:44.151Z,75.59
2023-04-16T01:03:12.739Z,75.96
2023-04-16T01:05:41.530Z,76.07
2023-04-16T01:08:18.045Z,76.67
2023-04-16T01:10:47.110Z,76.61
2023-04-16T01:13:15.364Z,76.79
2023-04-16T01:15:43.594Z,76.59
2023-04-16T01:18:16.249Z,76.93
2023-04-16T01:20:46.111Z,76.37
2023-04-16T01:23:14.312Z,76.10
2023-04-16T01:25:42.410Z,76.55
2023-04-16T01:28:10.861Z,76.78
2023-04-16T01:30:39.023Z,77.29
2023-04-16T01:33:08.314Z,77.78
2023-04-16T01:35:36.467Z,76.45
2023-04-16T01:38:07.978Z,77.01
2023-04-16T01:40:36.619Z,77.75
2023-04-16T01:43:05.021Z,77.23
2023-04-16T01:45:33.813Z,77.64
2023-04-16T01:48:02.465Z,78.22
2023-04-16T01:50:31.622Z,79.98
2023-04-16T01:52:59.788Z,80.60
2023-04-16T01:55:29.179Z,81.38
2023-04-16T01:57:57.300Z,81.23
2023-04-16T02:00:25.415Z,81.00
2023-04-16T02:02:53.831Z,81.20
2023-04-16T02:05:22.025Z,81.37
2023-04-16T02:07:50.134Z,82.13
2023-04-16T02:10:18.243Z,82.21
2023-04-16T02:12:47.725Z,82.47
2023-04-16T02:15:16.510Z,83.40
2023-04-16T02:17:46.697Z,83.62
2023-04-16T02:20:15.155Z,84.23
2023-04-16T02:22:43.946Z,83.94
2023-04-16T02:25:12.216Z,84.67
2023-04-16T02:27:40.294Z,84.56
2023-04-16T02:30:11.317Z,83.63
2023-04-16T02:32:39.379Z,84.28
2023-04-16T02:35:08.254Z,84.67
2023-04-16T02:37:36.438Z,84.98
2023-04-16T02:40:04.732Z,85.49
2023-04-16T02:42:32.875Z,86.38
2023-04-16T02:45:00.966Z,86.35
2023-04-16T02:47:30.500Z,86.51
2023-04-16T02:49:58.609Z,87.30
2023-04-16T02:52:26.696Z,86.44
2023-04-16T02:54:54.794Z,86.65
2023-04-16T02:57:22.845Z,87.92
2023-04-16T02:59:51.064Z,88.63
2023-04-16T03:02:19.395Z,88.62
2023-04-16T03:04:48.984Z,88.91
2023-04-16T03:07:18.432Z,89.67
2023-04-16T03:09:46.526Z,89.25
2023-04-16T03:12:14.597Z,89.33
2023-04-16T03:14:42.764Z,89.32
2023-04-16T03:17:10.922Z,89.20
2023-04-16T03:19:39.031Z,88.60
2023-04-16T03:22:08.600Z,88.66
2023-04-16T03:24:37.747Z,89.06
2023-04-16T03:27:06.014Z,89.55
2023-04-16T03:29:34.106Z,89.08
2023-04-16T03:32:03.660Z,89.01
2023-04-16T03:34:31.777Z,89.19
2023-04-16T03:37:00.051Z,89.76
2023-04-16T03:39:29.480Z,90.06
2023-04-16T03:41:57.587Z,90.15
2023-04-16T03:44:25.745Z,89.72
2023-04-16T03:46:54.003Z,89.56
2023-04-16T03:49:22.362Z,89.52
2023-04-16T03:51:50.491Z,89.25
2023-04-16T03:54:20.099Z,89.59
2023-04-16T03:56:52.173Z,90.15
2023-04-16T03:59:20.329Z,90.53
2023-04-16T04:01:48.456Z,90.17
2023-04-16T04:04:16.846Z,89.34
2023-04-16T04:06:46.744Z,89.81
2023-04-16T04:09:16.522Z,89.97
2023-04-16T04:11:44.805Z,89.79
2023-04-16T04:14:14.362Z,89.70
2023-04-16T04:16:42.982Z,90.12
2023-04-16T04:19:11.504Z,90.69
2023-04-16T04:21:40.206Z,90.82
2023-04-16T04:24:08.287Z,90.82
2023-04-16T04:26:36.406Z,91.59
2023-04-16T04:29:04.490Z,90.84
2023-04-16T04:31:34.137Z,90.31
2023-04-16T04:34:02.381Z,90.20
2023-04-16T04:36:31.065Z,89.55
2023-04-16T04:39:01.090Z,88.00
2023-04-16T04:41:29.197Z,88.94
2023-04-16T04:43:57.274Z,88.80
2023-04-16T04:46:25.506Z,89.38
2023-04-16T04:48:55.159Z,89.38
2023-04-16T04:51:23.330Z,87.06
2023-04-16T04:53:51.443Z,85.89
2023-04-16T04:56:19.548Z,85.50
2023-04-16T04:58:47.825Z,83.96
2023-04-16T05:01:16.132Z,84.23
2023-04-16T05:03:44.397Z,84.63
2023-04-16T05:06:13.990Z,84.83
2023-04-16T05:08:42.135Z,84.79
2023-04-16T05:11:10.302Z,85.08
2023-04-16T05:13:38.540Z,84.30
2023-04-16T05:16:07.590Z,84.26
2023-04-16T05:18:35.748Z,84.32
2023-04-16T05:21:03.962Z,84.05
2023-04-16T05:23:33.475Z,85.09
2023-04-16T05:26:01.776Z,84.67
2023-04-16T05:28:29.967Z,83.59
2023-04-16T05:30:58.127Z,81.72
2023-04-16T05:33:26.325Z,77.96
2023-04-16T05:35:54.807Z,76.88
2023-04-16T05:38:23.071Z,77.80
2023-04-16T05:40:52.778Z,77.03
2023-04-16T05:43:20.968Z,76.46
2023-04-16T05:45:49.230Z,73.03
2023-04-16T05:48:17.488Z,72.66
2023-04-16T05:50:48.388Z,70.49
2023-04-16T05:53:18.973Z,68.44
2023-04-16T05:55:47.888Z,66.98
2023-04-16T05:58:17.904Z,66.32
2023-04-16T06:00:47.417Z,66.32
2023-04-16T06:03:15.820Z,65.84
2023-04-16T06:05:44.174Z,65.41
2023-04-16T06:08:14.786Z,64.26
2023-04-16T06:10:43.253Z,64.20
2023-04-16T06:13:11.530Z,65.64
2023-04-16T06:15:41.829Z,66.67
2023-04-16T06:18:11.744Z,66.52
2023-04-16T06:20:40.265Z,66.27
2023-04-16T06:23:08.848Z,66.41
2023-04-16T06:25:37.043Z,65.60
2023-04-16T06:28:05.275Z,65.84
2023-04-16T06:30:33.726Z,66.49
2023-04-16T06:33:03.406Z,67.09
2023-04-16T06:35:31.482Z,66.16
2023-04-16T06:37:59.723Z,66.41
2023-04-16T06:40:27.942Z,65.50
2023-04-16T06:42:56.039Z,64.67
2023-04-16T06:45:24.128Z,64.99
2023-04-16T06:47:52.617Z,65.13
2023-04-16T06:50:23.722Z,65.87
2023-04-16T06:52:53.458Z,66.36
2023-04-16T06:55:21.794Z,66.04
2023-04-16T06:57:49.894Z,66.01
2023-04-16T07:00:18.377Z,65.87
2023-04-16T07:02:46.668Z,64.79
2023-04-16T07:05:14.787Z,64.46
2023-04-16T07:07:47.232Z,64.71
2023-04-16T07:10:15.477Z,64.88
2023-04-16T07:12:43.596Z,64.39
2023-04-16T07:15:12.613Z,65.31
2023-04-16T07:17:40.781Z,65.25
2023-04-16T07:20:10.361Z,64.26
2023-04-16T07:22:38.564Z,63.82
2023-04-16T07:25:09.220Z,63.52
2023-04-16T07:27:37.354Z,64.85
2023-04-16T07:30:06.426Z,62.08
2023-04-16T07:32:34.683Z,62.31
2023-04-16T07:35:03.916Z,61.90
2023-04-16T07:37:32.112Z,61.95
2023-04-16T07:40:00.960Z,61.79
2023-04-16T07:42:30.473Z,62.36
2023-04-16T07:44:58.795Z,62.35
2023-04-16T07:47:27.320Z,62.49
2023-04-16T07:49:55.942Z,63.25
2023-04-16T07:52:23.947Z,62.89
2023-04-16T07:54:52.897Z,61.58
2023-04-16T07:57:21.956Z,59.82
2023-04-16T07:59:51.541Z,59.98
2023-04-16T08:02:19.844Z,59.24
2023-04-16T08:04:48.182Z,59.71
2023-04-16T08:07:16.483Z,60.01
2023-04-16T08:09:53.112Z,60.60
2023-04-16T08:12:22.380Z,60.38
2023-04-16T08:14:51.942Z,60.78
2023-04-16T08:17:20.262Z,60.29
2023-04-16T08:19:48.332Z,60.50
2023-04-16T08:22:16.707Z,59.86
2023-04-16T08:24:45.853Z,61.55
2023-04-16T08:27:19.244Z,59.97
2023-04-16T08:29:48.708Z,59.19
2023-04-16T08:32:18.607Z,58.78
2023-04-16T08:34:46.930Z,57.68
2023-04-16T08:37:15.027Z,57.28
2023-04-16T08:39:43.071Z,57.84
2023-04-16T08:42:21.381Z,58.41
2023-04-16T08:44:50.442Z,59.61
2023-04-16T08:47:22.609Z,59.57
2023-04-16T08:49:51.282Z,59.41
2023-04-16T08:52:21.575Z,57.76
2023-04-16T08:55:01.440Z,57.04
2023-04-16T08:57:45.312Z,55.92
2023-04-16T09:00:14.768Z,54.53
2023-04-16T09:02:44.644Z,55.10
2023-04-16T09:05:17.475Z,55.84
2023-04-16T09:07:47.352Z,56.48
2023-04-16T09:10:16.444Z,53.11
2023-04-16T09:12:45.313Z,50.87
2023-04-16T09:15:16.889Z,50.25
2023-04-16T09:17:46.543Z,51.56
2023-04-16T09:20:15.066Z,52.64
2023-04-16T09:22:44.717Z,51.60
2023-04-16T09:25:13.340Z,51.72
2023-04-16T09:27:41.648Z,50.87
2023-04-16T09:30:23.670Z,50.46
2023-04-16T09:32:54.708Z,50.31
2023-04-16T09:35:23.143Z,49.56
2023-04-16T09:37:58.114Z,47.50
2023-04-16T09:40:27.720Z,48.03
2023-04-16T09:43:00.922Z,50.09
2023-04-16T09:45:34.118Z,51.77
2023-04-16T09:48:07.491Z,51.90
2023-04-16T09:50:35.665Z,51.44
2023-04-16T09:53:05.354Z,50.11
2023-04-16T09:55:34.162Z,47.20
2023-04-16T09:58:03.629Z,48.72
2023-04-16T10:00:32.431Z,48.82
2023-04-16T10:03:08.477Z,48.46
2023-04-16T10:05:36.721Z,49.36
2023-04-16T10:08:12.268Z,50.33
2023-04-16T10:10:40.956Z,50.07
2023-04-16T10:13:09.954Z,49.27
2023-04-16T10:15:38.453Z,48.20
2023-04-16T10:18:08.445Z,47.91
2023-04-16T10:20:38.086Z,48.78
2023-04-16T10:23:06.661Z,48.55
2023-04-16T10:25:35.489Z,48.05
2023-04-16T10:28:04.292Z,48.61
2023-04-16T10:30:32.906Z,49.48
2023-04-16T10:33:01.795Z,50.45
2023-04-16T10:35:31.706Z,50.63
2023-04-16T10:38:19.804Z,50.83
2023-04-16T10:40:49.360Z,51.07
2023-04-16T10:43:19.607Z,50.69
2023-04-16T10:45:49.780Z,50.20
2023-04-16T10:48:20.156Z,49.17
2023-04-16T10:50:58.583Z,48.94
2023-04-16T10:53:27.891Z,48.50
2023-04-16T10:56:15.517Z,48.32
2023-04-16T10:58:43.896Z,49.83
2023-04-16T11:01:16.855Z,50.06
2023-04-16T11:03:48.339Z,50.79
2023-04-16T11:06:19.269Z,50.90
2023-04-16T11:08:54.371Z,50.04
2023-04-16T11:11:23.531Z,50.39
2023-04-16T11:13:56.012Z,51.11
2023-04-16T11:16:26.471Z,52.04
2023-04-16T11:19:08.009Z,51.98
2023-04-16T11:21:38.422Z,51.36
2023-04-16T11:24:06.775Z,52.48
2023-04-16T11:26:35.209Z,52.97
2023-04-16T11:29:05.128Z,53.51
2023-04-16T11:31:33.241Z,53.86
2023-04-16T11:34:01.412Z,54.27
2023-04-16T11:36:29.461Z,53.05
2023-04-16T11:39:04.817Z,51.64
2023-04-16T11:41:32.945Z,51.42
2023-04-16T11:44:01.529Z,52.99
2023-04-16T11:46:40.498Z,52.75
2023-04-16T11:49:09.250Z,52.17
2023-04-16T11:51:41.361Z,51.70
2023-04-16T11:54:12.180Z,51.51
2023-04-16T11:56:46.920Z,51.38
2023-04-16T11:59:17.541Z,50.87
2023-04-16T12:01:48.835Z,50.80
2023-04-16T12:04:18.264Z,50.95
2023-04-16T12:07:08.564Z,50.42
2023-04-16T12:09:40.817Z,50.60
2023-04-16T12:12:27.599Z,51.49
2023-04-16T12:14:57.731Z,52.55
2023-04-16T12:17:28.305Z,53.98
2023-04-16T12:19:58.624Z,57.55
2023-04-16T12:22:31.702Z,65.31
2023-04-16T12:25:02.951Z,71.92
2023-04-16T12:27:48.579Z,74.03
2023-04-16T12:30:19.778Z,77.70
2023-04-16T12:32:49.498Z,81.20
2023-04-16T12:35:31.475Z,83.89
2023-04-16T12:37:59.609Z,86.20
2023-04-16T12:40:29.264Z,91.12
2023-04-16T12:42:57.538Z,97.79
2023-04-16T12:45:26.388Z,100.00
2023-04-16T12:47:54.595Z,100.00
2023-04-16T12:50:22.831Z,100.00
2023-04-16T12:52:51.106Z,100.00
2023-04-16T12:55:19.510Z,100.00
2023-04-16T12:57:53.011Z,100.00
2023-04-16T13:00:22.714Z,100.00
2023-04-16T13:02:52.828Z,100.00
2023-04-16T13:05:24.108Z,91.68
2023-04-16T13:07:52.286Z,74.38
2023-04-16T13:10:23.653Z,71.97
2023-04-16T13:12:53.572Z,74.33
2023-04-16T13:15:22.074Z,88.46
2023-04-16T13:17:50.735Z,89.77
2023-04-16T13:20:23.874Z,87.12
2023-04-16T13:22:52.553Z,90.32
2023-04-16T13:25:20.645Z,91.25
2023-04-16T13:27:48.682Z,87.00
2023-04-16T13:30:18.451Z,86.83
2023-04-16T13:32:47.888Z,88.05
2023-04-16T13:35:19.085Z,83.78
2023-04-16T13:37:47.512Z,83.63
2023-04-16T13:40:15.837Z,84.37
2023-04-16T13:42:43.942Z,79.23
2023-04-16T13:45:12.334Z,82.16
2023-04-16T13:47:42.952Z,74.00
2023-04-16T13:50:12.143Z,71.86
2023-04-16T13:52:40.214Z,70.94
2023-04-16T13:55:10.377Z,72.14
2023-04-16T13:57:39.736Z,70.55
2023-04-16T14:00:11.862Z,67.63
2023-04-16T14:02:46.147Z,68.04
2023-04-16T14:05:14.513Z,67.90
2023-04-16T14:07:42.786Z,68.20
2023-04-16T14:10:12.282Z,65.52
2023-04-16T14:12:40.672Z,67.87
2023-04-16T14:15:14.939Z,66.76
2023-04-16T14:17:45.182Z,64.77
2023-04-16T14:20:15.954Z,63.93
2023-04-16T14:22:45.076Z,63.40
2023-04-16T14:25:13.585Z,64.02
2023-04-16T14:27:42.639Z,64.96
2023-04-16T14:30:11.476Z,68.65
2023-04-16T14:32:40.117Z,67.55
2023-04-16T14:35:12.046Z,66.62
2023-04-16T14:37:40.825Z,66.61
2023-04-16T14:40:12.489Z,65.71
2023-04-16T14:42:41.524Z,65.78
2023-04-16T14:45:17.626Z,66.80
2023-04-16T14:47:47.999Z,66.95
2023-04-16T14:50:19.529Z,61.18
2023-04-16T14:52:47.810Z,60.62
2023-04-16T14:55:18.381Z,60.40
2023-04-16T14:57:46.534Z,58.99
2023-04-16T15:00:19.007Z,58.57
2023-04-16T15:02:48.567Z,60.48
2023-04-16T15:05:18.751Z,60.64
2023-04-16T15:07:47.353Z,61.01
2023-04-16T15:10:15.610Z,62.49
2023-04-16T15:12:43.745Z,63.95
2023-04-16T15:15:12.627Z,65.77
2023-04-16T15:17:41.575Z,66.73
2023-04-16T15:20:11.118Z,68.20
2023-04-16T15:22:41.187Z,69.01
2023-04-16T15:25:10.155Z,70.20
2023-04-16T15:27:39.680Z,71.71
2023-04-16T15:30:09.191Z,72.13
2023-04-16T15:32:37.417Z,72.09
2023-04-16T15:35:06.341Z,72.56
2023-04-16T15:37:34.792Z,73.23
2023-04-16T15:40:07.981Z,74.38
2023-04-16T15:42:36.307Z,73.75
2023-04-16T15:45:04.471Z,74.00
2023-04-16T15:47:32.651Z,74.26
2023-04-16T15:50:01.028Z,75.31
2023-04-16T15:52:29.815Z,75.02
2023-04-16T15:54:57.996Z,76.81
2023-04-16T15:57:28.953Z,76.99
2023-04-16T16:00:06.476Z,76.10
2023-04-16T16:02:36.377Z,75.87
2023-04-16T16:05:04.910Z,75.17
2023-04-16T16:07:33.132Z,74.35
2023-04-16T16:10:01.573Z,74.68
2023-04-16T16:12:31.716Z,74.66
2023-04-16T16:15:00.476Z,74.82
2023-04-16T16:17:29.362Z,75.00
2023-04-16T16:19:57.909Z,75.46
2023-04-16T16:22:26.167Z,75.29
2023-04-16T16:24:57.787Z,75.10
2023-04-16T16:27:25.969Z,76.70
2023-04-16T16:29:55.918Z,75.88
2023-04-16T16:32:24.285Z,76.91
2023-04-16T16:34:52.371Z,76.65
2023-04-16T16:37:20.440Z,77.12
2023-04-16T16:39:48.557Z,76.88
2023-04-16T16:42:19.364Z,77.03
2023-04-16T16:44:49.000Z,77.49
2023-04-16T16:47:18.612Z,77.68
2023-04-16T16:49:48.066Z,77.71
2023-04-16T16:52:18.529Z,78.25
2023-04-16T16:54:46.871Z,78.90
2023-04-16T16:57:15.547Z,79.79
2023-04-16T16:59:44.003Z,80.38
2023-04-16T17:02:12.398Z,80.76
2023-04-16T17:04:42.033Z,81.13
2023-04-16T17:07:10.300Z,81.56
2023-04-16T17:09:38.915Z,82.21
2023-04-16T17:12:07.806Z,82.43
2023-04-16T17:14:36.277Z,83.47
2023-04-16T17:17:04.476Z,84.78
2023-04-16T17:19:32.568Z,86.44
2023-04-16T17:22:02.061Z,87.05
2023-04-16T17:24:30.277Z,87.90
2023-04-16T17:26:58.570Z,89.29
2023-04-16T17:29:26.950Z,90.94
2023-04-16T17:31:55.132Z,92.50
2023-04-16T17:34:23.316Z,93.08
2023-04-16T17:36:51.702Z,94.20
2023-04-16T17:39:22.472Z,95.06
2023-04-16T17:41:54.394Z,96.18
2023-04-16T17:44:23.249Z,97.69
2023-04-16T17:46:51.463Z,99.11
2023-04-16T17:49:19.667Z,100.00
2023-04-16T17:51:47.760Z,100.00
2023-04-16T17:54:15.946Z,100.00
2023-04-16T17:56:46.181Z,100.00
2023-04-16T17:59:14.406Z,100.00
2023-04-16T18:01:42.676Z,100.00
2023-04-16T18:04:11.530Z,100.00
2023-04-16T18:06:40.462Z,100.00
2023-04-16T18:09:08.708Z,100.00
2023-04-16T18:11:37.216Z,100.00
2023-04-16T18:14:10.136Z,100.00
2023-04-16T18:16:38.646Z,100.00
2023-04-16T18:19:07.083Z,100.00
2023-04-16T18:21:35.887Z,100.00
2023-04-16T18:24:04.070Z,100.00
2023-04-16T18:26:35.695Z,100.00
2023-04-16T18:29:04.228Z,100.00
2023-04-16T18:31:34.455Z,100.00
2023-04-16T18:34:02.909Z,100.00
2023-04-16T18:36:31.339Z,100.00
2023-04-16T18:39:02.437Z,100.00
2023-04-16T18:41:31.298Z,100.00
2023-04-16T18:43:59.477Z,100.00
2023-04-16T18:46:28.006Z,100.00
2023-04-16T18:48:59.046Z,100.00
2023-04-16T18:51:27.417Z,100.00
2023-04-16T18:53:55.557Z,100.00
2023-04-16T18:56:23.737Z,100.00
2023-04-16T18:58:51.949Z,100.00
2023-04-16T19:01:20.425Z,100.00
2023-04-16T19:03:48.905Z,97.54
2023-04-16T19:06:18.538Z,93.82
2023-04-16T19:08:46.653Z,88.08
2023-04-16T19:11:14.774Z,84.06
2023-04-16T19:13:43.360Z,77.95
2023-04-16T19:16:12.482Z,75.90
2023-04-16T19:18:40.674Z,71.23
2023-04-16T19:21:10.968Z,71.84
2023-04-16T19:23:40.631Z,66.50
2023-04-16T19:26:08.736Z,63.50
2023-04-16T19:28:38.803Z,61.91
2023-04-16T19:31:07.437Z,61.97
2023-04-16T19:33:35.672Z,62.31
2023-04-16T19:36:03.758Z,63.98
2023-04-16T19:38:32.663Z,65.09
2023-04-16T19:41:02.888Z,65.90
2023-04-16T19:43:32.045Z,67.10
2023-04-16T19:46:00.275Z,68.96
2023-04-16T19:48:28.976Z,71.37
2023-04-16T19:50:57.104Z,74.43
2023-04-16T19:53:25.500Z,77.68
2023-04-16T19:55:53.601Z,81.73
2023-04-16T19:58:23.309Z,83.73
2023-04-16T20:00:51.609Z,85.25
2023-04-16T20:03:19.919Z,85.68
2023-04-16T20:05:50.015Z,85.61
2023-04-16T20:08:18.324Z,91.22
2023-04-16T20:10:46.589Z,95.35
2023-04-16T20:13:16.089Z,100.00
2023-04-16T20:15:47.969Z,100.00
2023-04-16T20:18:16.030Z,100.00
2023-04-16T20:20:44.209Z,100.00
2023-04-16T20:23:12.423Z,100.00
2023-04-16T20:25:42.642Z,100.00
2023-04-16T20:28:10.818Z,100.00
2023-04-16T20:30:39.996Z,100.00
2023-04-16T20:33:10.537Z,100.00
2023-04-16T20:35:38.610Z,100.00
2023-04-16T20:38:06.836Z,100.00
2023-04-16T20:40:38.183Z,100.00
2023-04-16T20:43:10.180Z,100.00
2023-04-16T20:45:41.139Z,100.00
2023-04-16T20:48:11.982Z,100.00
2023-04-16T20:50:40.142Z,100.00
2023-04-16T20:53:08.252Z,100.00
2023-04-16T20:55:36.432Z,100.00
2023-04-16T20:58:04.508Z,100.00
2023-04-16T21:00:49.116Z,100.00
2023-04-16T21:03:34.282Z,100.00
2023-04-16T21:06:03.707Z,100.00
2023-04-16T21:08:31.729Z,100.00
2023-04-16T21:10:59.950Z,100.00
2023-04-16T21:13:28.009Z,100.00
2023-04-16T21:15:56.193Z,100.00
2023-04-16T21:18:24.373Z,100.00
2023-04-16T21:20:54.861Z,100.00
2023-04-16T21:23:23.030Z,100.00
2023-04-16T21:25:51.212Z,100.00
2023-04-16T21:28:19.377Z,100.00
2023-04-16T21:30:47.516Z,100.00
2023-04-16T21:33:16.799Z,100.00
2023-04-16T21:35:44.872Z,100.00
2023-04-16T21:38:14.371Z,100.00
2023-04-16T21:40:42.474Z,100.00
2023-04-16T21:43:10.550Z,100.00
2023-04-16T21:45:38.815Z,100.00
2023-04-16T21:48:07.588Z,100.00
2023-04-16T21:50:36.191Z,100.00
2023-04-16T21:53:06.360Z,100.00
2023-04-16T21:55:36.229Z,100.00
2023-04-16T21:58:04.992Z,100.00
2023-04-16T22:00:33.289Z,100.00
2023-04-16T22:03:04.386Z,100.00
2023-04-16T22:05:33.623Z,100.00
2023-04-16T22:08:10.817Z,100.00
2023-04-16T22:10:50.951Z,100.00
2023-04-16T22:13:19.083Z,100.00
2023-04-16T22:15:48.052Z,100.00
2023-04-16T22:18:18.356Z,100.00
2023-04-16T22:20:47.382Z,100.00
2023-04-16T22:23:16.184Z,100.00
2023-04-16T22:25:44.532Z,100.00
2023-04-16T22:28:14.237Z,100.00
2023-04-16T22:30:42.393Z,100.00
2023-04-16T22:33:11.372Z,100.00
2023-04-16T22:35:40.381Z,100.00
2023-04-16T22:38:08.966Z,100.00
2023-04-16T22:40:37.277Z,100.00
2023-04-16T22:43:05.330Z,100.00
2023-04-16T22:45:34.785Z,100.00
2023-04-16T22:48:02.931Z,100.00
2023-04-16T22:50:32.374Z,100.00
2023-04-16T22:53:00.443Z,100.00
2023-04-16T22:55:28.593Z,100.00
2023-04-16T22:57:56.652Z,100.00
2023-04-16T23:00:25.078Z,100.00
2023-04-16T23:02:54.679Z,100.00
2023-04-16T23:05:23.033Z,100.00
2023-04-16T23:07:51.207Z,100.00
2023-04-16T23:10:19.388Z,100.00
2023-04-16T23:12:47.511Z,100.00
2023-04-16T23:15:17.600Z,100.00
2023-04-16T23:17:46.214Z,100.00
2023-04-16T23:20:15.722Z,100.00
2023-04-16T23:22:43.843Z,100.00
2023-04-16T23:25:12.276Z,100.00
2023-04-16T23:27:40.376Z,100.00
2023-04-16T23:30:09.607Z,100.00
2023-04-16T23:32:37.913Z,100.00
2023-04-16T23:35:06.772Z,100.00
2023-04-16T23:37:36.385Z,100.00
2023-04-16T23:40:04.993Z,100.00
2023-04-16T23:42:33.229Z,100.00
2023-04-16T23:45:03.664Z,100.00
2023-04-16T23:47:32.068Z,100.00
2023-04-16T23:50:00.555Z,100.00
2023-04-16T23:52:28.679Z,100.00
2023-04-16T23:54:58.260Z,100.00
2023-04-16T23:57:26.326Z,100.00
2023-04-16T23:59:55.339Z,100.00
